This demonstration page uses our WeatherBlox Daily Observations layout. Learn more.

41.86663, -103.66717

Hourly Observations for August 8, 2020

Temp ( °F °C ) Dew Point ( °F °C ) Humidity (%) Winds ( mph kmh ) Pressure ( in mb ) Visibility ( mi km ) Precip ( " mm )
12:53 am 00:53 Clear 67 19.4 56 13.3 68 68 Calm 29.77 1008 10 16.0934 0 0
1:53 am 01:53 Clear 65 18.3 57 13.9 76 76 N 5 7 29.76 1008 10 16.0934 0 0
2:53 am 02:53 Clear 64 17.8 55 12.8 73 73 SW 5 7 29.76 1008 10 16.0934 0 0
3:53 am 03:53 Clear 63 17.2 55 12.8 76 76 NW 9 15 29.78 1008 10 16.0934 0 0
4:53 am 04:53 Clear 67 19.4 53 11.7 61 61 S 3 6 29.8 1009 10 16.0934 0 0
5:53 am 05:53 undefined 62 16.7 52 11.1 70 70 NNW 7 11 29.84 1010 10 16.0934 0 0
6:53 am 06:53 Sunny 63 17.2 53 11.7 70 70 W 7 11 29.88 1012 10 16.0934 0 0
7:53 am 07:53 Sunny 72 22.2 56 13.3 57 57 WNW 10 17 29.93 1014 10 16.0934 0 0
8:53 am 08:53 Sunny 77 25 58 14.4 52 52 WSW 9 15 29.91 1013 10 16.0934 0 0
9:53 am 09:53 Sunny 80 26.7 57 13.9 45 45 NW 6 9 29.92 1013 10 16.0934 0 0
10:53 am 10:53 Sunny 83 28.3 60 15.6 46 46 VRB 3 6 29.9 1012 10 16.0934 0 0
11:53 am 11:53 Sunny 86 30 61 16.1 43 43 VRB 3 6 29.9 1013 10 16.0934 0 0
12:53 pm 12:53 Sunny 89 31.7 62 16.7 41 41 undefined N/A 29.88 1012 10 16.0934 0 0
1:53 pm 13:53 Sunny 90 32.2 62 16.7 39 39 S 7 11 29.87 1012 10 16.0934 0 0
2:53 pm 14:53 Sunny 91 32.8 61 16.1 37 37 undefined N/A 29.86 1011 10 16.0934 0 0
3:53 pm 15:53 Sunny 93 33.9 60 15.6 33 33 ESE 7 11 29.85 1011 10 16.0934 0 0
4:53 pm 16:53 Sunny 94 34.4 59 15 31 31 ESE 14 22 29.8 1009 10 16.0934 0 0
5:53 pm 17:53 Sunny 91 32.8 61 16.1 37 37 E 9 15 29.8 1009 10 16.0934 0 0
6:53 pm 18:53 Sunny 86 30 57 13.9 37 37 ENE 12 19 29.83 1010 10 16.0934 0 0
7:53 pm 19:53 Sunny 80 26.7 57 13.9 45 45 ENE 10 17 29.82 1010 10 16.0934 0 0
8:53 pm 20:53 Clear 75 23.9 58 14.4 55 55 undefined N/A 29.84 1011 10 16.0934 0 0
9:53 pm 21:53 Clear 76 24.4 50 10 40 40 E 7 11 29.85 1011 10 16.0934 0 0
10:53 pm 22:53 Clear 72 22.2 51 10.6 48 48 undefined N/A 29.86 1011 10 16.0934 0 0
11:53 pm 23:53 Clear 67 19.4 51 10.6 57 57 ESE 9 15 29.88 1012 10 16.0934 0 0

Powered by AerisWeather